createdAt,value
2022-12-12T00:00:31.128Z,-6.89
2022-12-12T00:01:31.112Z,-6.89
2022-12-12T00:02:31.190Z,-7.17
2022-12-12T00:03:31.248Z,-7.06
2022-12-12T00:04:36.953Z,-7.17
2022-12-12T00:05:31.226Z,-6.72
2022-12-12T00:06:31.133Z,-7.06
2022-12-12T00:07:31.124Z,-6.72
2022-12-12T00:08:31.200Z,-7.17
2022-12-12T00:09:31.127Z,-7.17
2022-12-12T00:10:31.116Z,-7.06
2022-12-12T00:11:31.121Z,-6.89
2022-12-12T00:12:31.128Z,-7.33
2022-12-12T00:13:31.123Z,-7.06
2022-12-12T00:14:31.128Z,-7.17
2022-12-12T00:15:31.225Z,-7.33
2022-12-12T00:16:31.122Z,-7.17
2022-12-12T00:17:31.130Z,-7.17
2022-12-12T00:18:31.125Z,-7.33
2022-12-12T00:19:31.146Z,-7.33
2022-12-12T00:20:31.149Z,-7.17
2022-12-12T00:21:31.176Z,-7.33
2022-12-12T00:22:31.138Z,-7.44
2022-12-12T00:23:31.133Z,-7.33
2022-12-12T00:24:31.133Z,-7.17
2022-12-12T00:25:31.136Z,-7.67
2022-12-12T00:26:31.137Z,-7.83
2022-12-12T00:27:31.138Z,-7.44
2022-12-12T00:28:31.136Z,-8.11
2022-12-12T00:29:31.140Z,-7.94
2022-12-12T00:30:31.147Z,-7.83
2022-12-12T00:31:31.185Z,-7.83
2022-12-12T00:32:31.139Z,-7.67
2022-12-12T00:33:31.152Z,-7.67
2022-12-12T00:34:31.148Z,-7.44
2022-12-12T00:35:31.145Z,-7.94
2022-12-12T00:36:31.154Z,-8.11
2022-12-12T00:37:31.190Z,-7.67
2022-12-12T00:38:31.153Z,-7.83
2022-12-12T00:39:31.157Z,-7.67
2022-12-12T00:40:31.179Z,-7.83
2022-12-12T00:41:31.178Z,-7.67
2022-12-12T00:42:31.160Z,-8.28
2022-12-12T00:43:31.155Z,-8.11
2022-12-12T00:44:31.170Z,-8.28
2022-12-12T00:45:31.148Z,-7.83
2022-12-12T00:46:31.248Z,-7.83
2022-12-12T00:47:31.160Z,-8.11
2022-12-12T00:48:31.162Z,-7.83
2022-12-12T00:49:31.159Z,-7.44
2022-12-12T00:50:31.164Z,-7.44
2022-12-12T00:51:31.173Z,-7.83
2022-12-12T00:52:31.162Z,-7.83
2022-12-12T00:53:31.195Z,-7.83
2022-12-12T00:54:31.166Z,-7.83
2022-12-12T00:55:31.177Z,-8.11
2022-12-12T00:56:31.169Z,-7.94
2022-12-12T00:57:31.171Z,-7.94
2022-12-12T00:58:31.172Z,-7.94
2022-12-12T00:59:31.178Z,-7.94
2022-12-12T01:00:31.178Z,-8.44
2022-12-12T01:01:31.253Z,-7.94
2022-12-12T01:02:31.222Z,-7.94
2022-12-12T01:03:31.186Z,-7.94
2022-12-12T01:04:31.186Z,-8.61
2022-12-12T01:05:31.184Z,-7.94
2022-12-12T01:06:31.198Z,-8.11
2022-12-12T01:07:31.188Z,-7.94
2022-12-12T01:08:31.227Z,-8.28
2022-12-12T01:09:31.213Z,-8.61
2022-12-12T01:10:31.198Z,-8.61
2022-12-12T01:11:31.193Z,-8.78
2022-12-12T01:12:31.190Z,-8.28
2022-12-12T01:13:31.200Z,-8.11
2022-12-12T01:14:31.192Z,-8.11
2022-12-12T01:15:31.199Z,-8.11
2022-12-12T01:16:31.230Z,-8.11
2022-12-12T01:17:31.197Z,-8.11
2022-12-12T01:18:31.203Z,-8.61
2022-12-12T01:19:31.191Z,-8.11
2022-12-12T01:20:31.197Z,-8.28
2022-12-12T01:21:31.201Z,-8.44
2022-12-12T01:22:31.204Z,-7.94
2022-12-12T01:23:31.209Z,-7.94
2022-12-12T01:24:31.200Z,-7.94
2022-12-12T01:25:31.227Z,-7.94
2022-12-12T01:26:31.201Z,-8.11
2022-12-12T01:27:31.228Z,-8.11
2022-12-12T01:28:31.210Z,-8.11
2022-12-12T01:29:31.210Z,-7.94
2022-12-12T01:30:31.215Z,-7.83
2022-12-12T01:31:31.244Z,-7.94
2022-12-12T01:32:31.212Z,-8.11
2022-12-12T01:33:31.208Z,-7.94
2022-12-12T01:34:31.218Z,-7.94
2022-12-12T01:35:31.215Z,-8.28
2022-12-12T01:36:31.219Z,-8.28
2022-12-12T01:37:31.223Z,-7.83
2022-12-12T01:38:31.218Z,-8.28
2022-12-12T01:39:31.228Z,-7.94
2022-12-12T01:40:31.225Z,-8.44
2022-12-12T01:41:31.371Z,-8.44
2022-12-12T01:42:31.226Z,-8.28
2022-12-12T01:43:31.224Z,-7.94
2022-12-12T01:44:31.233Z,-8.28
2022-12-12T01:45:31.223Z,-7.94
2022-12-12T01:46:31.265Z,-8.61
2022-12-12T01:47:31.225Z,-8.89
2022-12-12T01:48:31.227Z,-9.22
2022-12-12T01:49:31.239Z,-8.89
2022-12-12T01:50:31.234Z,-8.89
2022-12-12T01:51:31.238Z,-8.89
2022-12-12T01:52:31.234Z,-8.89
2022-12-12T01:53:31.242Z,-8.78
2022-12-12T01:54:31.241Z,-8.89
2022-12-12T01:55:31.237Z,-9.06
2022-12-12T01:56:31.244Z,-9.22
2022-12-12T01:57:31.269Z,-8.89
2022-12-12T01:58:31.235Z,-8.89
2022-12-12T01:59:31.252Z,-8.78
2022-12-12T02:00:31.253Z,-8.44
2022-12-12T02:01:31.257Z,-8.28
2022-12-12T02:02:31.279Z,-8.61
2022-12-12T02:03:31.252Z,-8.61
2022-12-12T02:04:31.245Z,-8.61
2022-12-12T02:05:31.241Z,-8.44
2022-12-12T02:06:31.253Z,-8.44
2022-12-12T02:07:31.248Z,-8.44
2022-12-12T02:08:31.332Z,-8.44
2022-12-12T02:09:31.249Z,-8.61
2022-12-12T02:10:31.247Z,-8.61
2022-12-12T02:11:31.253Z,-8.44
2022-12-12T02:12:31.255Z,-8.44
2022-12-12T02:13:31.272Z,-8.89
2022-12-12T02:14:31.256Z,-8.89
2022-12-12T02:15:31.255Z,-9.06
2022-12-12T02:16:31.273Z,-8.89
2022-12-12T02:17:31.259Z,-8.89
2022-12-12T02:18:31.261Z,-8.89
2022-12-12T02:19:31.260Z,-8.89
2022-12-12T02:20:31.261Z,-9.22
2022-12-12T02:21:31.268Z,-8.89
2022-12-12T02:22:31.261Z,-9.06
2022-12-12T02:23:31.252Z,-8.61
2022-12-12T02:24:31.264Z,-8.61
2022-12-12T02:25:31.258Z,-8.44
2022-12-12T02:26:31.257Z,-8.78
2022-12-12T02:27:31.263Z,-8.44
2022-12-12T02:28:31.266Z,-8.89
2022-12-12T02:29:31.287Z,-8.78
2022-12-12T02:30:31.266Z,-8.89
2022-12-12T02:31:31.294Z,-8.78
2022-12-12T02:32:31.272Z,-8.89
2022-12-12T02:33:31.270Z,-9.06
2022-12-12T02:34:31.274Z,-8.89
2022-12-12T02:35:31.270Z,-8.89
2022-12-12T02:36:31.269Z,-8.61
2022-12-12T02:37:31.267Z,-8.11
2022-12-12T02:38:31.277Z,-7.94
2022-12-12T02:39:31.267Z,-7.94
2022-12-12T02:40:31.274Z,-7.94
2022-12-12T02:41:31.278Z,-8.44
2022-12-12T02:42:31.275Z,-8.44
2022-12-12T02:43:31.284Z,-9.06
2022-12-12T02:44:31.284Z,-9.06
2022-12-12T02:45:31.304Z,-9.22
2022-12-12T02:46:31.333Z,-8.78
2022-12-12T02:47:31.278Z,-9.06
2022-12-12T02:48:31.289Z,-8.89
2022-12-12T02:49:31.285Z,-8.89
2022-12-12T02:50:31.278Z,-9.06
2022-12-12T02:51:31.285Z,-9.22
2022-12-12T02:52:31.284Z,-8.89
2022-12-12T02:53:31.286Z,-8.89
2022-12-12T02:54:31.284Z,-9.22
2022-12-12T02:55:35.067Z,-9.22
2022-12-12T02:56:31.305Z,-9.39
2022-12-12T02:57:31.290Z,-9.22
2022-12-12T02:58:31.287Z,-9.22
2022-12-12T02:59:31.297Z,-9.22
2022-12-12T03:00:31.328Z,-9.56
2022-12-12T03:01:31.305Z,-9.22
2022-12-12T03:02:31.289Z,-9.22
2022-12-12T03:03:31.295Z,-9.22
2022-12-12T03:04:31.291Z,-9.22
2022-12-12T03:05:31.283Z,-9.06
2022-12-12T03:06:33.135Z,-9.06
2022-12-12T03:07:31.291Z,-10.5
2022-12-12T03:08:31.347Z,-10.33
2022-12-12T03:09:31.284Z,-10.67
2022-12-12T03:10:31.286Z,-10.33
2022-12-12T03:11:31.290Z,-10
2022-12-12T03:12:31.288Z,-10
2022-12-12T03:13:31.284Z,-10.17
2022-12-12T03:14:31.288Z,-9.72
2022-12-12T03:15:31.292Z,-9.56
2022-12-12T03:16:31.321Z,-9.39
2022-12-12T03:17:31.313Z,-9.39
2022-12-12T03:18:31.298Z,-9.56
2022-12-12T03:19:31.290Z,-9.39
2022-12-12T03:20:31.285Z,-9.06
2022-12-12T03:21:31.295Z,-9.22
2022-12-12T03:22:31.281Z,-9.06
2022-12-12T03:23:31.294Z,-8.89
2022-12-12T03:24:31.287Z,-8.89
2022-12-12T03:25:31.297Z,-8.78
2022-12-12T03:26:31.294Z,-8.89
2022-12-12T03:27:31.286Z,-8.89
2022-12-12T03:28:31.280Z,-10
2022-12-12T03:29:31.298Z,-10.67
2022-12-12T03:30:31.295Z,-10.33
2022-12-12T03:31:31.331Z,-10
2022-12-12T03:32:31.288Z,-10
2022-12-12T03:33:31.311Z,-9.56
2022-12-12T03:34:31.294Z,-10
2022-12-12T03:35:31.280Z,-9.83
2022-12-12T03:36:31.287Z,-10
2022-12-12T03:37:31.283Z,-10.33
2022-12-12T03:38:31.293Z,-10.33
2022-12-12T03:39:31.291Z,-10.33
2022-12-12T03:40:31.290Z,-9.83
2022-12-12T03:41:31.287Z,-9.83
2022-12-12T03:42:31.300Z,-9.39
2022-12-12T03:43:31.293Z,-9.39
2022-12-12T03:44:31.291Z,-9.39
2022-12-12T03:45:31.379Z,-9.39
2022-12-12T03:46:31.305Z,-9.56
2022-12-12T03:47:31.299Z,-9.22
2022-12-12T03:48:31.301Z,-9.39
2022-12-12T03:49:31.340Z,-9.39
2022-12-12T03:50:31.293Z,-9.06
2022-12-12T03:51:31.302Z,-9.22
2022-12-12T03:52:31.298Z,-9.56
2022-12-12T03:53:31.307Z,-9.56
2022-12-12T03:54:31.298Z,-10
2022-12-12T03:55:31.306Z,-9.83
2022-12-12T03:56:31.307Z,-9.72
2022-12-12T03:57:31.303Z,-9.83
2022-12-12T03:58:31.305Z,-9.72
2022-12-12T03:59:31.313Z,-10.17
2022-12-12T04:00:31.301Z,-10
2022-12-12T04:01:31.380Z,-9.83
2022-12-12T04:02:31.414Z,-10.33
2022-12-12T04:03:31.311Z,-9.83
2022-12-12T04:04:31.312Z,-10.33
2022-12-12T04:05:31.328Z,-9.72
2022-12-12T04:06:31.317Z,-10
2022-12-12T04:07:31.314Z,-9.72
2022-12-12T04:08:31.327Z,-9.72
2022-12-12T04:09:31.313Z,-9.72
2022-12-12T04:10:31.310Z,-9.39
2022-12-12T04:11:31.310Z,-10
2022-12-12T04:12:31.311Z,-9.56
2022-12-12T04:13:32.341Z,-9.72
2022-12-12T04:14:31.320Z,-9.39
2022-12-12T04:15:31.323Z,-9.72
2022-12-12T04:16:31.329Z,-10.17
2022-12-12T04:17:31.309Z,-9.72
2022-12-12T04:18:31.312Z,-10
2022-12-12T04:19:31.319Z,-9.83
2022-12-12T04:20:31.319Z,-9.83
2022-12-12T04:21:31.362Z,-9.83
2022-12-12T04:22:31.321Z,-10.33
2022-12-12T04:23:31.324Z,-10
2022-12-12T04:24:31.321Z,-9.83
2022-12-12T04:25:31.325Z,-9.72
2022-12-12T04:26:31.326Z,-9.56
2022-12-12T04:27:31.320Z,-9.83
2022-12-12T04:28:31.317Z,-9.83
2022-12-12T04:29:31.335Z,-10
2022-12-12T04:30:31.323Z,-9.83
2022-12-12T04:31:31.362Z,-10.5
2022-12-12T04:32:31.324Z,-10
2022-12-12T04:33:31.328Z,-10.33
2022-12-12T04:34:31.332Z,-10.5
2022-12-12T04:35:31.336Z,-9.83
2022-12-12T04:36:31.334Z,-9.72
2022-12-12T04:37:31.357Z,-9.56
2022-12-12T04:38:31.334Z,-9.39
2022-12-12T04:39:31.334Z,-9.56
2022-12-12T04:40:31.338Z,-9.83
2022-12-12T04:41:31.335Z,-9.72
2022-12-12T04:42:31.337Z,-9.83
2022-12-12T04:43:31.337Z,-10.17
2022-12-12T04:44:31.337Z,-10.17
2022-12-12T04:45:31.400Z,-9.83
2022-12-12T04:46:31.341Z,-10.17
2022-12-12T04:47:31.339Z,-10.33
2022-12-12T04:48:34.434Z,-10.5
2022-12-12T04:49:31.337Z,-10
2022-12-12T04:50:31.351Z,-10
2022-12-12T04:51:31.346Z,-10.17
2022-12-12T04:52:31.357Z,-10.33
2022-12-12T04:53:31.367Z,-10.67
2022-12-12T04:54:31.345Z,-10.17
2022-12-12T04:55:31.344Z,-9.83
2022-12-12T04:56:31.336Z,-9.83
2022-12-12T04:57:31.344Z,-10.33
2022-12-12T04:58:31.348Z,-9.83
2022-12-12T04:59:31.342Z,-9.83
2022-12-12T05:00:31.348Z,-9.83
2022-12-12T05:01:31.396Z,-9.72
2022-12-12T05:02:31.394Z,-9.83
2022-12-12T05:03:31.351Z,-9.83
2022-12-12T05:04:31.343Z,-9.72
2022-12-12T05:05:31.344Z,-9.72
2022-12-12T05:06:31.346Z,-9.56
2022-12-12T05:07:35.066Z,-9.83
2022-12-12T05:08:31.415Z,-10
2022-12-12T05:09:31.381Z,-10.17
2022-12-12T05:10:31.356Z,-10.67
2022-12-12T05:11:31.353Z,-10.5
2022-12-12T05:12:31.355Z,-10.67
2022-12-12T05:13:31.360Z,-10.33
2022-12-12T05:14:31.358Z,-10.67
2022-12-12T05:15:31.347Z,-10.67
2022-12-12T05:16:31.455Z,-10.67
2022-12-12T05:17:31.362Z,-10.67
2022-12-12T05:18:31.356Z,-10.5
2022-12-12T05:19:31.358Z,-10.67
2022-12-12T05:20:31.357Z,-10.67
2022-12-12T05:21:31.356Z,-10.5
2022-12-12T05:22:31.360Z,-10.5
2022-12-12T05:23:34.551Z,-10.67
2022-12-12T05:24:31.369Z,-10.67
2022-12-12T05:25:31.384Z,-10.17
2022-12-12T05:26:31.364Z,-10.5
2022-12-12T05:27:31.360Z,-9.83
2022-12-12T05:28:31.370Z,-10
2022-12-12T05:29:31.372Z,-10.33
2022-12-12T05:30:31.412Z,-9.83
2022-12-12T05:31:31.367Z,-10
2022-12-12T05:32:31.362Z,-9.83
2022-12-12T05:33:31.370Z,-9.83
2022-12-12T05:34:31.364Z,-10.17
2022-12-12T05:35:31.367Z,-9.83
2022-12-12T05:36:31.369Z,-10.33
2022-12-12T05:37:31.370Z,-10.17
2022-12-12T05:38:31.366Z,-10.67
2022-12-12T05:39:31.364Z,-10.67
2022-12-12T05:40:31.368Z,-9.83
2022-12-12T05:41:31.390Z,-9.72
2022-12-12T05:42:31.369Z,-9.72
2022-12-12T05:43:31.377Z,-10
2022-12-12T05:44:31.368Z,-10.17
2022-12-12T05:45:31.375Z,-10.5
2022-12-12T05:46:31.409Z,-10.67
2022-12-12T05:47:31.379Z,-10.83
2022-12-12T05:48:31.379Z,-11
2022-12-12T05:49:31.370Z,-10.83
2022-12-12T05:50:31.377Z,-11.17
2022-12-12T05:51:31.370Z,-11.33
2022-12-12T05:52:31.375Z,-10.83
2022-12-12T05:53:31.379Z,-11
2022-12-12T05:54:31.382Z,-10.67
2022-12-12T05:55:31.392Z,-10.33
2022-12-12T05:56:31.379Z,-11.17
2022-12-12T05:57:31.408Z,-11
2022-12-12T05:58:31.382Z,-11
2022-12-12T05:59:31.378Z,-11.67
2022-12-12T06:00:31.374Z,-11.5
2022-12-12T06:01:31.380Z,-11.67
2022-12-12T06:02:31.437Z,-11.67
2022-12-12T06:03:31.395Z,-11.33
2022-12-12T06:04:31.447Z,-11.5
2022-12-12T06:05:31.386Z,-11.67
2022-12-12T06:06:31.388Z,-11
2022-12-12T06:07:31.386Z,-11.17
2022-12-12T06:08:31.401Z,-11
2022-12-12T06:09:31.382Z,-11
2022-12-12T06:10:31.382Z,-11
2022-12-12T06:11:31.385Z,-11.17
2022-12-12T06:12:31.386Z,-11.33
2022-12-12T06:13:31.413Z,-11
2022-12-12T06:14:31.386Z,-11.5
2022-12-12T06:15:31.429Z,-11.5
2022-12-12T06:16:31.397Z,-11.33
2022-12-12T06:17:33.424Z,-11.17
2022-12-12T06:18:31.390Z,-10.83
2022-12-12T06:19:31.395Z,-10.83
2022-12-12T06:20:31.392Z,-10.67
2022-12-12T06:21:31.390Z,-11
2022-12-12T06:22:31.400Z,-10.83
2022-12-12T06:23:31.393Z,-10.83
2022-12-12T06:24:31.394Z,-10.5
2022-12-12T06:25:31.401Z,-10.67
2022-12-12T06:26:31.391Z,-10.33
2022-12-12T06:27:31.393Z,-10.67
2022-12-12T06:28:31.399Z,-10.5
2022-12-12T06:29:31.424Z,-10.5
2022-12-12T06:30:31.392Z,-10.17
2022-12-12T06:31:31.437Z,-9.83
2022-12-12T06:32:31.396Z,-9.83
2022-12-12T06:33:31.400Z,-9.56
2022-12-12T06:34:31.406Z,-9.83
2022-12-12T06:35:31.405Z,-10.5
2022-12-12T06:36:31.396Z,-11
2022-12-12T06:37:31.412Z,-10.67
2022-12-12T06:38:31.393Z,-10.33
2022-12-12T06:39:31.403Z,-10.17
2022-12-12T06:40:31.399Z,-10.5
2022-12-12T06:41:31.411Z,-10.17
2022-12-12T06:42:31.403Z,-10.17
2022-12-12T06:43:31.427Z,-10.17
2022-12-12T06:44:31.412Z,-9.83
2022-12-12T06:45:31.420Z,-10
2022-12-12T06:46:31.486Z,-10.5
2022-12-12T06:47:31.409Z,-10.5
2022-12-12T06:48:31.409Z,-10
2022-12-12T06:49:31.408Z,-10
2022-12-12T06:50:31.405Z,-9.72
2022-12-12T06:51:31.407Z,-9.72
2022-12-12T06:52:31.408Z,-9.39
2022-12-12T06:53:31.410Z,-9.39
2022-12-12T06:54:31.410Z,-9.39
2022-12-12T06:55:31.412Z,-10
2022-12-12T06:56:31.408Z,-9.83
2022-12-12T06:57:31.421Z,-9.83
2022-12-12T06:58:31.412Z,-10
2022-12-12T06:59:31.417Z,-10.17
2022-12-12T07:00:31.408Z,-10.17
2022-12-12T07:01:31.495Z,-10.83
2022-12-12T07:02:31.456Z,-11
2022-12-12T07:03:31.416Z,-11.67
2022-12-12T07:04:31.488Z,-11.67
2022-12-12T07:05:31.411Z,-11.67
2022-12-12T07:06:31.416Z,-11.33
2022-12-12T07:07:31.415Z,-11.17
2022-12-12T07:08:31.464Z,-11.33
2022-12-12T07:09:31.440Z,-11.17
2022-12-12T07:10:31.434Z,-11.17
2022-12-12T07:11:31.419Z,-11.17
2022-12-12T07:12:31.423Z,-11.17
2022-12-12T07:13:31.421Z,-11
2022-12-12T07:14:31.417Z,-11.17
2022-12-12T07:15:31.437Z,-11.33
2022-12-12T07:16:31.422Z,-11.33
2022-12-12T07:17:31.453Z,-11.33
2022-12-12T07:18:31.421Z,-11.33
2022-12-12T07:19:31.436Z,-11.17
2022-12-12T07:20:31.424Z,-11.17
2022-12-12T07:21:31.427Z,-11
2022-12-12T07:22:31.429Z,-10.5
2022-12-12T07:23:31.422Z,-10.67
2022-12-12T07:24:31.430Z,-10.33
2022-12-12T07:25:31.426Z,-10.5
2022-12-12T07:26:31.428Z,-10.33
2022-12-12T07:27:31.427Z,-10.5
2022-12-12T07:28:31.436Z,-10.67
2022-12-12T07:29:31.436Z,-10.5
2022-12-12T07:30:31.428Z,-10.33
2022-12-12T07:31:31.454Z,-10.5
2022-12-12T07:32:31.461Z,-10.83
2022-12-12T07:33:41.283Z,-10.83
2022-12-12T07:34:31.433Z,-10.5
2022-12-12T07:35:31.426Z,-11.17
2022-12-12T07:36:31.428Z,-11
2022-12-12T07:37:31.441Z,-10.83
2022-12-12T07:38:31.437Z,-10.83
2022-12-12T07:39:31.429Z,-10.5
2022-12-12T07:40:31.430Z,-10.5
2022-12-12T07:41:31.432Z,-10.5
2022-12-12T07:42:31.434Z,-10.5
2022-12-12T07:43:32.875Z,-10
2022-12-12T07:44:31.431Z,-10
2022-12-12T07:45:31.432Z,-9.83
2022-12-12T07:46:31.496Z,-10.17
2022-12-12T07:47:31.449Z,-10
2022-12-12T07:48:31.447Z,-9.72
2022-12-12T07:49:31.471Z,-9.39
2022-12-12T07:50:31.446Z,-9.17
2022-12-12T07:51:31.437Z,-9.17
2022-12-12T07:52:31.479Z,-9.22
2022-12-12T07:53:31.454Z,-9.39
2022-12-12T07:54:31.445Z,-9.17
2022-12-12T07:55:31.454Z,-9.28
2022-12-12T07:56:31.444Z,-9.28
2022-12-12T07:57:31.446Z,-9
2022-12-12T07:58:31.443Z,-9.28
2022-12-12T07:59:31.453Z,-9.28
2022-12-12T08:00:31.447Z,-9.33
2022-12-12T08:01:31.535Z,-9.06
2022-12-12T08:02:31.441Z,-9.33
2022-12-12T08:03:31.453Z,-9.39
2022-12-12T08:04:31.486Z,-8.94
2022-12-12T08:05:31.478Z,-9.06
2022-12-12T08:06:31.455Z,-8.78
2022-12-12T08:07:31.458Z,-9.06
2022-12-12T08:08:31.490Z,-8.94
2022-12-12T08:09:31.452Z,-8.89
2022-12-12T08:10:31.470Z,-9.39
2022-12-12T08:11:31.457Z,-9.56
2022-12-12T08:12:31.464Z,-9.72
2022-12-12T08:13:31.455Z,-9.72
2022-12-12T08:14:31.448Z,-9.72
2022-12-12T08:15:31.454Z,-9.83
2022-12-12T08:16:31.463Z,-10.17
2022-12-12T08:17:31.453Z,-10
2022-12-12T08:18:31.458Z,-9.83
2022-12-12T08:19:31.455Z,-10
2022-12-12T08:20:31.450Z,-9.56
2022-12-12T08:21:31.477Z,-9.72
2022-12-12T08:22:31.459Z,-9.06
2022-12-12T08:23:31.458Z,-9.06
2022-12-12T08:24:31.462Z,-9.11
2022-12-12T08:25:31.461Z,-9.44
2022-12-12T08:26:31.465Z,-9.11
2022-12-12T08:27:31.472Z,-8.94
2022-12-12T08:28:31.472Z,-8.83
2022-12-12T08:29:31.474Z,-8.67
2022-12-12T08:30:31.462Z,-8.83
2022-12-12T08:31:31.583Z,-9
2022-12-12T08:32:31.458Z,-8.78
2022-12-12T08:33:31.464Z,-8.83
2022-12-12T08:34:31.459Z,-8.44
2022-12-12T08:35:31.465Z,-8.78
2022-12-12T08:36:31.475Z,-9
2022-12-12T08:37:31.491Z,-8.94
2022-12-12T08:38:31.460Z,-8.61
2022-12-12T08:39:31.466Z,-8.44
2022-12-12T08:40:31.460Z,-8.94
2022-12-12T08:41:31.463Z,-8.83
2022-12-12T08:42:31.473Z,-8.61
2022-12-12T08:43:31.462Z,-8.83
2022-12-12T08:44:31.465Z,-8.72
2022-12-12T08:45:31.464Z,-8.61
2022-12-12T08:46:31.477Z,-8.83
2022-12-12T08:47:31.468Z,-8.44
2022-12-12T08:48:31.458Z,-9.06
2022-12-12T08:49:31.469Z,-8.78
2022-12-12T08:50:31.465Z,-9.06
2022-12-12T08:51:31.468Z,-9.22
2022-12-12T08:52:31.464Z,-8.89
2022-12-12T08:53:31.506Z,-9.06
2022-12-12T08:54:31.460Z,-8.89
2022-12-12T08:55:31.467Z,-9
2022-12-12T08:56:31.467Z,-8.44
2022-12-12T08:57:31.462Z,-8.44
2022-12-12T08:58:31.479Z,-8.44
2022-12-12T08:59:31.460Z,-8.78
2022-12-12T09:00:31.478Z,-9.06
2022-12-12T09:01:31.507Z,-8.78
2022-12-12T09:02:31.584Z,-8.22
2022-12-12T09:03:31.473Z,-8.17
2022-12-12T09:04:31.461Z,-8.17
2022-12-12T09:05:31.463Z,-7.94
2022-12-12T09:06:31.470Z,-7.67
2022-12-12T09:07:31.477Z,-7.33
2022-12-12T09:08:31.576Z,-7.06
2022-12-12T09:09:31.495Z,-7.5
2022-12-12T09:10:31.477Z,-7.83
2022-12-12T09:11:31.477Z,-7.67
2022-12-12T09:12:33.589Z,-7.83
2022-12-12T09:13:31.476Z,-8
2022-12-12T09:14:31.478Z,-7.72
2022-12-12T09:15:31.477Z,-7.33
2022-12-12T09:16:31.517Z,-7.33
2022-12-12T09:17:31.476Z,-6.83
2022-12-12T09:18:31.506Z,-6.78
2022-12-12T09:19:31.479Z,-7.33
2022-12-12T09:20:31.485Z,-6.94
2022-12-12T09:21:31.479Z,-6.61
2022-12-12T09:22:31.498Z,-6.78
2022-12-12T09:23:31.488Z,-7.11
2022-12-12T09:24:31.487Z,-6.94
2022-12-12T09:25:31.511Z,-6.78
2022-12-12T09:26:31.494Z,-6.94
2022-12-12T09:27:31.488Z,-6.5
2022-12-12T09:28:31.482Z,-5.72
2022-12-12T09:29:31.485Z,-5.56
2022-12-12T09:30:31.473Z,-5.72
2022-12-12T09:31:31.499Z,-5.39
2022-12-12T09:32:31.502Z,-4.94
2022-12-12T09:33:31.477Z,-5.39
2022-12-12T09:34:31.480Z,-5.06
2022-12-12T09:35:31.480Z,-5.06
2022-12-12T09:36:31.479Z,-5.22
2022-12-12T09:37:31.487Z,-5.39
2022-12-12T09:38:31.480Z,-4.78
2022-12-12T09:39:31.478Z,-5.06
2022-12-12T09:40:31.502Z,-4.94
2022-12-12T09:41:31.502Z,-5.56
2022-12-12T09:42:31.477Z,-5.72
2022-12-12T09:43:31.478Z,-5.06
2022-12-12T09:44:31.485Z,-5.22
2022-12-12T09:45:31.571Z,-4.78
2022-12-12T09:46:31.485Z,-5.56
2022-12-12T09:47:31.481Z,-5.39
2022-12-12T09:48:31.482Z,-4.61
2022-12-12T09:49:31.480Z,-4.61
2022-12-12T09:50:31.483Z,-5.56
2022-12-12T09:51:31.488Z,-5.56
2022-12-12T09:52:31.548Z,-5.06
2022-12-12T09:53:31.482Z,-5.06
2022-12-12T09:54:31.487Z,-5.39
2022-12-12T09:55:31.489Z,-5.56
2022-12-12T09:56:31.488Z,-5.72
2022-12-12T09:57:31.508Z,-5.06
2022-12-12T09:58:31.491Z,-4.5
2022-12-12T09:59:31.483Z,-5.56
2022-12-12T10:00:31.552Z,-5.72
2022-12-12T10:01:31.488Z,-5.56
2022-12-12T10:02:31.555Z,-5.72
2022-12-12T10:03:31.491Z,-5.06
2022-12-12T10:04:31.488Z,-4.33
2022-12-12T10:05:31.488Z,-4.5
2022-12-12T10:06:38.689Z,-4.5
2022-12-12T10:07:31.491Z,-4.17
2022-12-12T10:08:31.523Z,-4.17
2022-12-12T10:09:31.488Z,-4.61
2022-12-12T10:10:31.491Z,-4.5
2022-12-12T10:11:31.512Z,-4.5
2022-12-12T10:12:31.490Z,-3.72
2022-12-12T10:13:31.535Z,-4.5
2022-12-12T10:14:31.492Z,-4.17
2022-12-12T10:15:31.490Z,-4.06
2022-12-12T10:16:31.513Z,-4.06
2022-12-12T10:17:31.483Z,-3.89
2022-12-12T10:18:31.496Z,-4.33
2022-12-12T10:19:31.493Z,-4.06
2022-12-12T10:20:31.495Z,-4.06
2022-12-12T10:21:31.502Z,-4.61
2022-12-12T10:22:31.489Z,-4.33
2022-12-12T10:23:31.493Z,-3.89
2022-12-12T10:24:31.496Z,-3.56
2022-12-12T10:25:31.492Z,-3.89
2022-12-12T10:26:31.500Z,-3.28
2022-12-12T10:27:31.497Z,-3.28
2022-12-12T10:28:31.497Z,-3.44
2022-12-12T10:29:33.531Z,-3.17
2022-12-12T10:30:31.485Z,-3.72
2022-12-12T10:31:31.564Z,-3
2022-12-12T10:32:31.502Z,-3.17
2022-12-12T10:33:31.492Z,-3.28
2022-12-12T10:34:31.497Z,-3.67
2022-12-12T10:35:31.792Z,-3.72
2022-12-12T10:36:31.503Z,-3.72
2022-12-12T10:37:31.492Z,-3.17
2022-12-12T10:38:31.492Z,-3.28
2022-12-12T10:39:31.494Z,-3.56
2022-12-12T10:40:31.497Z,-3.72
2022-12-12T10:41:31.501Z,-4.5
2022-12-12T10:42:31.498Z,-4.78
2022-12-12T10:43:31.499Z,-4.22
2022-12-12T10:44:31.496Z,-4.22
2022-12-12T10:45:31.584Z,-3.44
2022-12-12T10:46:31.630Z,-3.06
2022-12-12T10:47:31.492Z,-3.17
2022-12-12T10:48:31.499Z,-2.89
2022-12-12T10:49:31.491Z,-3.72
2022-12-12T10:50:31.495Z,-3.44
2022-12-12T10:51:31.502Z,-3.56
2022-12-12T10:52:31.491Z,-4
2022-12-12T10:53:31.506Z,-4.61
2022-12-12T10:54:31.491Z,-4.94
2022-12-12T10:55:31.503Z,-4.94
2022-12-12T10:56:31.495Z,-5.06
2022-12-12T10:57:31.499Z,-4.22
2022-12-12T10:58:31.504Z,-3.89
2022-12-12T10:59:31.495Z,-3.89
2022-12-12T11:00:31.496Z,-3.28
2022-12-12T11:02:31.571Z,-3.11
2022-12-12T11:03:31.560Z,-3.33
2022-12-12T11:04:31.508Z,-3.06
2022-12-12T11:05:31.500Z,-3.06
2022-12-12T11:06:31.502Z,-3.17
2022-12-12T11:07:31.499Z,-3.17
2022-12-12T11:08:31.559Z,-3.11
2022-12-12T11:09:31.503Z,-2.61
2022-12-12T11:10:34.154Z,-3.61
2022-12-12T11:11:31.499Z,-4.06
2022-12-12T11:12:31.501Z,-4.78
2022-12-12T11:13:31.500Z,-4.5
2022-12-12T11:14:31.500Z,-4.94
2022-12-12T11:15:31.492Z,-4.33
2022-12-12T11:16:31.558Z,-4.22
2022-12-12T11:17:31.528Z,-3.61
2022-12-12T11:18:31.492Z,-3.72
2022-12-12T11:19:31.501Z,-3.89
2022-12-12T11:20:31.508Z,-4.06
2022-12-12T11:21:31.508Z,-4.78
2022-12-12T11:22:31.507Z,-5.06
2022-12-12T11:23:31.500Z,-4.78
2022-12-12T11:24:31.511Z,-4.78
2022-12-12T11:25:31.510Z,-4.94
2022-12-12T11:26:31.511Z,-4.94
2022-12-12T11:27:31.497Z,-4.78
2022-12-12T11:28:31.506Z,-4.78
2022-12-12T11:29:31.507Z,-4.78
2022-12-12T11:30:31.507Z,-4.78
2022-12-12T11:31:31.529Z,-4.61
2022-12-12T11:32:31.513Z,-4.94
2022-12-12T11:33:31.541Z,-4.78
2022-12-12T11:34:33.510Z,-3.89
2022-12-12T11:35:31.525Z,-3.89
2022-12-12T11:36:31.517Z,-3.61
2022-12-12T11:37:31.514Z,-3.06
2022-12-12T11:38:31.506Z,-3.06
2022-12-12T11:39:31.520Z,-3.61
2022-12-12T11:40:31.515Z,-3.28
2022-12-12T11:41:31.510Z,-2.61
2022-12-12T11:42:31.507Z,-2.28
2022-12-12T11:43:31.511Z,-2.89
2022-12-12T11:44:31.511Z,-2.61
2022-12-12T11:45:31.543Z,-2.44
2022-12-12T11:46:31.516Z,-2.89
2022-12-12T11:47:31.517Z,-2.44
2022-12-12T11:48:31.509Z,-2.44
2022-12-12T11:49:31.543Z,-2.72
2022-12-12T11:50:31.511Z,-2.72
2022-12-12T11:51:31.513Z,-2.61
2022-12-12T11:52:31.524Z,-2.61
2022-12-12T11:53:31.524Z,-3.06
2022-12-12T11:54:31.525Z,-2.72
2022-12-12T11:55:31.517Z,-2.72
2022-12-12T11:56:31.526Z,-3.17
2022-12-12T11:57:31.517Z,-2.89
2022-12-12T11:58:31.513Z,-3.06
2022-12-12T11:59:31.516Z,-2.89
2022-12-12T12:00:31.513Z,-3.17
2022-12-12T12:01:31.516Z,-2.72
2022-12-12T12:02:31.517Z,-3.28
2022-12-12T12:03:31.573Z,-4.22
2022-12-12T12:04:31.548Z,-4.61
2022-12-12T12:05:31.546Z,-4.5
2022-12-12T12:06:31.516Z,-3.89
2022-12-12T12:07:31.518Z,-3.61
2022-12-12T12:08:31.577Z,-4.06
2022-12-12T12:09:31.526Z,-3.44
2022-12-12T12:10:31.535Z,-4.22
2022-12-12T12:11:31.530Z,-4.33
2022-12-12T12:12:31.520Z,-4.5
2022-12-12T12:13:31.521Z,-4.94
2022-12-12T12:14:31.521Z,-4.5
2022-12-12T12:15:31.527Z,-3.89
2022-12-12T12:16:31.586Z,-3.89
2022-12-12T12:17:31.514Z,-3.44
2022-12-12T12:18:31.524Z,-3.61
2022-12-12T12:19:31.517Z,-4.22
2022-12-12T12:20:31.513Z,-4.33
2022-12-12T12:21:31.551Z,-4.33
2022-12-12T12:22:31.520Z,-4.22
2022-12-12T12:23:34.045Z,-3.89
2022-12-12T12:24:31.521Z,-4.33
2022-12-12T12:25:31.523Z,-4.33
2022-12-12T12:26:31.519Z,-4.22
2022-12-12T12:27:31.526Z,-3.61
2022-12-12T12:28:31.520Z,-3.61
2022-12-12T12:29:31.517Z,-4.06
2022-12-12T12:30:31.550Z,-4.5
2022-12-12T12:31:31.518Z,-4.33
2022-12-12T12:32:31.531Z,-4.22
2022-12-12T12:33:31.521Z,-4.33
2022-12-12T12:34:31.526Z,-4.06
2022-12-12T12:35:31.512Z,-3.89
2022-12-12T12:36:31.517Z,-3.89
2022-12-12T12:37:31.538Z,-3.89
2022-12-12T12:38:31.525Z,-4.06
2022-12-12T12:39:31.522Z,-4.61
2022-12-12T12:40:31.526Z,-4.5
2022-12-12T12:41:31.523Z,-4.06
2022-12-12T12:42:31.518Z,-3.89
2022-12-12T12:43:31.521Z,-4.5
2022-12-12T12:44:31.521Z,-4.5
2022-12-12T12:45:31.523Z,-4.22
2022-12-12T12:46:31.534Z,-3.89
2022-12-12T12:47:31.521Z,-3.89
2022-12-12T12:48:31.517Z,-4.06
2022-12-12T12:49:31.524Z,-4.06
2022-12-12T12:50:31.525Z,-4.06
2022-12-12T12:51:31.535Z,-3.89
2022-12-12T12:52:31.521Z,-3.89
2022-12-12T12:53:31.550Z,-4.22
2022-12-12T12:54:31.525Z,-3.72